Coburg, Germany
Current Conditions -  °F | °C
As of 8:50 AM on Saturday 25 Oct 2014 (Local Time) from EDQM Reporting Station
Light Fog Light Fog  
Wind Chill: 39°   Ceiling: Unl
Heat Index: 39°   Visibility: 0.93mi
Dew Point: 37°   Wind: 2mph
Humidity: 93%   Direction: 150°SSE
Pressure: 30.12"   Gusts: NA
Location:  50.26°N, 10.97°E
Report Text: EDQM 250650Z 15002KT 1500 R26/0550V0900U BCFG FEW001 SCT004 04/03 Q1020
Loading
Personal Weather Stations






























Interactive Weather Map
Tropical Storm Tracking
New forecast layout! Learn more

10-Day Weather Forecast

Advertisements
Track Severe Weather on mobile